sensor_id;sensor_type;location;lat;lon;timestamp;P1;durP1;ratioP1;P2;durP2;ratioP2
73672;SDS011;61972;19.480;-99.240;2023-04-25T00:00:09;11.37;;;6.50;;
73672;SDS011;61972;19.480;-99.240;2023-04-25T00:02:36;10.77;;;7.38;;
73672;SDS011;61972;19.480;-99.240;2023-04-25T00:05:02;9.57;;;6.93;;
73672;SDS011;61972;19.480;-99.240;2023-04-25T00:07:30;9.93;;;6.75;;
73672;SDS011;61972;19.480;-99.240;2023-04-25T00:09:57;11.93;;;6.63;;
73672;SDS011;61972;19.480;-99.240;2023-04-25T00:12:24;10.07;;;7.07;;
73672;SDS011;61972;19.480;-99.240;2023-04-25T00:14:50;12.85;;;8.20;;
73672;SDS011;61972;19.480;-99.240;2023-04-25T00:17:16;12.30;;;8.15;;
73672;SDS011;61972;19.480;-99.240;2023-04-25T00:19:42;13.40;;;8.00;;
73672;SDS011;61972;19.480;-99.240;2023-04-25T00:22:10;10.65;;;6.70;;
73672;SDS011;61972;19.480;-99.240;2023-04-25T00:24:37;10.13;;;6.97;;
73672;SDS011;61972;19.480;-99.240;2023-04-25T00:27:03;11.45;;;7.13;;
73672;SDS011;61972;19.480;-99.240;2023-04-25T00:29:29;11.43;;;7.50;;
73672;SDS011;61972;19.480;-99.240;2023-04-25T00:31:55;11.45;;;6.50;;
73672;SDS011;61972;19.480;-99.240;2023-04-25T00:34:21;12.27;;;6.90;;
73672;SDS011;61972;19.480;-99.240;2023-04-25T00:36:47;9.67;;;6.50;;
73672;SDS011;61972;19.480;-99.240;2023-04-25T00:39:13;8.57;;;5.93;;
73672;SDS011;61972;19.480;-99.240;2023-04-25T00:41:40;10.50;;;5.93;;
73672;SDS011;61972;19.480;-99.240;2023-04-25T00:44:08;12.18;;;6.45;;
73672;SDS011;61972;19.480;-99.240;2023-04-25T00:46:36;8.50;;;6.15;;
73672;SDS011;61972;19.480;-99.240;2023-04-25T00:49:03;8.00;;;5.90;;
73672;SDS011;61972;19.480;-99.240;2023-04-25T00:51:29;10.65;;;5.72;;
73672;SDS011;61972;19.480;-99.240;2023-04-25T00:53:57;9.73;;;5.47;;
73672;SDS011;61972;19.480;-99.240;2023-04-25T00:56:24;10.63;;;5.80;;
73672;SDS011;61972;19.480;-99.240;2023-04-25T00:58:52;10.90;;;5.68;;
73672;SDS011;61972;19.480;-99.240;2023-04-25T01:01:22;11.27;;;5.63;;
73672;SDS011;61972;19.480;-99.240;2023-04-25T01:03:48;8.43;;;5.35;;
73672;SDS011;61972;19.480;-99.240;2023-04-25T01:06:16;10.02;;;5.30;;
73672;SDS011;61972;19.480;-99.240;2023-04-25T01:08:42;8.82;;;5.82;;
73672;SDS011;61972;19.480;-99.240;2023-04-25T01:11:08;8.43;;;6.00;;
73672;SDS011;61972;19.480;-99.240;2023-04-25T01:13:34;9.73;;;6.00;;
73672;SDS011;61972;19.480;-99.240;2023-04-25T01:16:01;10.27;;;6.18;;
73672;SDS011;61972;19.480;-99.240;2023-04-25T01:18:28;10.65;;;5.88;;
73672;SDS011;61972;19.480;-99.240;2023-04-25T01:20:54;10.55;;;6.43;;
73672;SDS011;61972;19.480;-99.240;2023-04-25T01:23:21;10.85;;;6.90;;
73672;SDS011;61972;19.480;-99.240;2023-04-25T01:25:48;10.23;;;6.00;;
73672;SDS011;61972;19.480;-99.240;2023-04-25T01:28:15;9.63;;;6.95;;
73672;SDS011;61972;19.480;-99.240;2023-04-25T01:30:41;10.35;;;7.13;;
73672;SDS011;61972;19.480;-99.240;2023-04-25T01:33:08;14.40;;;7.22;;
73672;SDS011;61972;19.480;-99.240;2023-04-25T01:35:35;13.38;;;7.30;;
73672;SDS011;61972;19.480;-99.240;2023-04-25T01:38:01;24.27;;;7.00;;
73672;SDS011;61972;19.480;-99.240;2023-04-25T01:40:28;12.15;;;6.60;;
73672;SDS011;61972;19.480;-99.240;2023-04-25T01:42:54;9.18;;;6.10;;
73672;SDS011;61972;19.480;-99.240;2023-04-25T01:45:21;10.73;;;6.85;;
73672;SDS011;61972;19.480;-99.240;2023-04-25T01:47:47;12.50;;;6.07;;
73672;SDS011;61972;19.480;-99.240;2023-04-25T01:50:15;9.90;;;6.13;;
73672;SDS011;61972;19.480;-99.240;2023-04-25T01:52:46;10.18;;;6.10;;
73672;SDS011;61972;19.480;-99.240;2023-04-25T01:55:12;11.57;;;6.32;;
73672;SDS011;61972;19.480;-99.240;2023-04-25T01:57:38;13.38;;;6.32;;
73672;SDS011;61972;19.480;-99.240;2023-04-25T02:00:05;11.40;;;6.68;;
73672;SDS011;61972;19.480;-99.240;2023-04-25T02:02:32;12.83;;;6.90;;
73672;SDS011;61972;19.480;-99.240;2023-04-25T02:04:58;14.38;;;7.45;;
73672;SDS011;61972;19.480;-99.240;2023-04-25T02:07:25;12.73;;;7.60;;
73672;SDS011;61972;19.480;-99.240;2023-04-25T02:09:52;16.08;;;8.60;;
73672;SDS011;61972;19.480;-99.240;2023-04-25T02:12:18;12.93;;;8.20;;
73672;SDS011;61972;19.480;-99.240;2023-04-25T02:14:44;12.53;;;9.27;;
73672;SDS011;61972;19.480;-99.240;2023-04-25T02:17:10;17.92;;;10.18;;
73672;SDS011;61972;19.480;-99.240;2023-04-25T02:19:37;18.83;;;10.57;;
73672;SDS011;61972;19.480;-99.240;2023-04-25T02:22:04;16.10;;;11.18;;
73672;SDS011;61972;19.480;-99.240;2023-04-25T02:24:30;21.35;;;12.68;;
73672;SDS011;61972;19.480;-99.240;2023-04-25T02:26:57;19.70;;;13.60;;
73672;SDS011;61972;19.480;-99.240;2023-04-25T02:29:23;18.92;;;12.90;;
73672;SDS011;61972;19.480;-99.240;2023-04-25T02:31:49;22.35;;;13.18;;
73672;SDS011;61972;19.480;-99.240;2023-04-25T02:34:15;25.40;;;13.27;;
73672;SDS011;61972;19.480;-99.240;2023-04-25T02:36:41;22.10;;;13.82;;
73672;SDS011;61972;19.480;-99.240;2023-04-25T02:39:07;20.43;;;14.00;;
73672;SDS011;61972;19.480;-99.240;2023-04-25T02:41:33;19.55;;;12.85;;
73672;SDS011;61972;19.480;-99.240;2023-04-25T02:43:59;18.45;;;12.85;;
73672;SDS011;61972;19.480;-99.240;2023-04-25T02:46:26;20.08;;;13.02;;
73672;SDS011;61972;19.480;-99.240;2023-04-25T02:48:52;21.02;;;12.98;;
73672;SDS011;61972;19.480;-99.240;2023-04-25T02:51:18;19.60;;;11.80;;
73672;SDS011;61972;19.480;-99.240;2023-04-25T02:53:44;18.63;;;11.57;;
73672;SDS011;61972;19.480;-99.240;2023-04-25T02:56:10;17.58;;;10.88;;
73672;SDS011;61972;19.480;-99.240;2023-04-25T02:58:36;14.88;;;9.73;;
73672;SDS011;61972;19.480;-99.240;2023-04-25T03:01:02;13.68;;;9.15;;
73672;SDS011;61972;19.480;-99.240;2023-04-25T03:03:28;12.03;;;8.67;;
73672;SDS011;61972;19.480;-99.240;2023-04-25T03:05:54;13.95;;;8.20;;
73672;SDS011;61972;19.480;-99.240;2023-04-25T03:08:20;13.65;;;8.32;;
73672;SDS011;61972;19.480;-99.240;2023-04-25T03:10:47;13.18;;;8.23;;
73672;SDS011;61972;19.480;-99.240;2023-04-25T03:13:15;10.38;;;7.68;;
73672;SDS011;61972;19.480;-99.240;2023-04-25T03:15:41;13.87;;;8.07;;
73672;SDS011;61972;19.480;-99.240;2023-04-25T03:18:07;12.32;;;8.02;;
73672;SDS011;61972;19.480;-99.240;2023-04-25T03:20:33;14.32;;;7.50;;
73672;SDS011;61972;19.480;-99.240;2023-04-25T03:22:59;14.68;;;7.57;;
73672;SDS011;61972;19.480;-99.240;2023-04-25T03:25:25;12.05;;;8.13;;
73672;SDS011;61972;19.480;-99.240;2023-04-25T03:27:51;12.50;;;7.93;;
73672;SDS011;61972;19.480;-99.240;2023-04-25T03:30:18;11.55;;;7.55;;
73672;SDS011;61972;19.480;-99.240;2023-04-25T03:32:44;13.10;;;7.90;;
73672;SDS011;61972;19.480;-99.240;2023-04-25T03:35:10;11.13;;;7.72;;
73672;SDS011;61972;19.480;-99.240;2023-04-25T03:37:36;13.10;;;7.82;;
73672;SDS011;61972;19.480;-99.240;2023-04-25T03:40:02;14.47;;;8.63;;
73672;SDS011;61972;19.480;-99.240;2023-04-25T03:42:29;11.07;;;8.40;;
73672;SDS011;61972;19.480;-99.240;2023-04-25T03:44:55;13.73;;;8.80;;
73672;SDS011;61972;19.480;-99.240;2023-04-25T03:47:21;13.85;;;8.85;;
73672;SDS011;61972;19.480;-99.240;2023-04-25T03:49:51;22.33;;;8.77;;
73672;SDS011;61972;19.480;-99.240;2023-04-25T03:52:18;18.47;;;9.70;;
73672;SDS011;61972;19.480;-99.240;2023-04-25T03:54:44;14.45;;;8.93;;
73672;SDS011;61972;19.480;-99.240;2023-04-25T03:57:13;15.02;;;8.85;;
73672;SDS011;61972;19.480;-99.240;2023-04-25T03:59:45;15.25;;;9.52;;
73672;SDS011;61972;19.480;-99.240;2023-04-25T04:02:20;16.05;;;9.20;;
73672;SDS011;61972;19.480;-99.240;2023-04-25T04:05:26;15.70;;;9.20;;
73672;SDS011;61972;19.480;-99.240;2023-04-25T04:07:56;16.95;;;10.00;;
73672;SDS011;61972;19.480;-99.240;2023-04-25T04:10:23;14.70;;;9.55;;
73672;SDS011;61972;19.480;-99.240;2023-04-25T04:12:57;13.88;;;9.00;;
73672;SDS011;61972;19.480;-99.240;2023-04-25T04:15:45;15.60;;;9.15;;
73672;SDS011;61972;19.480;-99.240;2023-04-25T04:18:11;16.10;;;9.03;;
73672;SDS011;61972;19.480;-99.240;2023-04-25T04:20:37;16.50;;;9.32;;
73672;SDS011;61972;19.480;-99.240;2023-04-25T04:23:04;17.17;;;8.55;;
73672;SDS011;61972;19.480;-99.240;2023-04-25T04:25:30;22.73;;;9.10;;
73672;SDS011;61972;19.480;-99.240;2023-04-25T04:28:00;17.30;;;9.52;;
73672;SDS011;61972;19.480;-99.240;2023-04-25T04:30:26;15.63;;;9.13;;
73672;SDS011;61972;19.480;-99.240;2023-04-25T04:32:56;18.58;;;9.00;;
73672;SDS011;61972;19.480;-99.240;2023-04-25T04:35:23;17.75;;;9.20;;
73672;SDS011;61972;19.480;-99.240;2023-04-25T04:37:50;21.33;;;9.60;;
73672;SDS011;61972;19.480;-99.240;2023-04-25T04:43:08;13.93;;;9.20;;
73672;SDS011;61972;19.480;-99.240;2023-04-25T04:45:35;16.33;;;9.38;;
73672;SDS011;61972;19.480;-99.240;2023-04-25T04:48:05;18.38;;;10.15;;
73672;SDS011;61972;19.480;-99.240;2023-04-25T04:50:31;18.27;;;9.13;;
73672;SDS011;61972;19.480;-99.240;2023-04-25T04:53:01;13.48;;;8.90;;
73672;SDS011;61972;19.480;-99.240;2023-04-25T04:55:39;13.57;;;8.90;;
73672;SDS011;61972;19.480;-99.240;2023-04-25T04:58:06;12.25;;;8.57;;
73672;SDS011;61972;19.480;-99.240;2023-04-25T05:00:33;12.93;;;8.30;;
73672;SDS011;61972;19.480;-99.240;2023-04-25T05:03:19;13.75;;;8.60;;
73672;SDS011;61972;19.480;-99.240;2023-04-25T05:05:52;12.60;;;8.68;;
73672;SDS011;61972;19.480;-99.240;2023-04-25T05:08:24;18.90;;;9.07;;
73672;SDS011;61972;19.480;-99.240;2023-04-25T05:16:59;17.90;;;10.25;;
73672;SDS011;61972;19.480;-99.240;2023-04-25T05:22:30;30.10;;;11.83;;
73672;SDS011;61972;19.480;-99.240;2023-04-25T05:25:11;27.92;;;11.55;;
73672;SDS011;61972;19.480;-99.240;2023-04-25T05:33:44;13.32;;;9.32;;
73672;SDS011;61972;19.480;-99.240;2023-04-25T05:36:22;14.87;;;9.17;;
73672;SDS011;61972;19.480;-99.240;2023-04-25T05:38:48;13.10;;;9.23;;
73672;SDS011;61972;19.480;-99.240;2023-04-25T05:41:14;13.52;;;8.75;;
73672;SDS011;61972;19.480;-99.240;2023-04-25T05:43:52;13.50;;;8.55;;
73672;SDS011;61972;19.480;-99.240;2023-04-25T05:48:58;13.47;;;8.90;;
73672;SDS011;61972;19.480;-99.240;2023-04-25T05:51:24;14.38;;;8.98;;
73672;SDS011;61972;19.480;-99.240;2023-04-25T05:53:51;11.98;;;8.63;;
73672;SDS011;61972;19.480;-99.240;2023-04-25T05:56:17;14.13;;;8.32;;
73672;SDS011;61972;19.480;-99.240;2023-04-25T05:58:46;11.98;;;9.05;;
73672;SDS011;61972;19.480;-99.240;2023-04-25T06:01:12;14.33;;;8.83;;
73672;SDS011;61972;19.480;-99.240;2023-04-25T06:03:39;14.30;;;8.85;;
73672;SDS011;61972;19.480;-99.240;2023-04-25T06:06:08;15.05;;;9.05;;
73672;SDS011;61972;19.480;-99.240;2023-04-25T06:08:35;15.00;;;9.38;;
73672;SDS011;61972;19.480;-99.240;2023-04-25T06:11:01;13.20;;;9.50;;
73672;SDS011;61972;19.480;-99.240;2023-04-25T06:13:28;11.83;;;8.80;;
73672;SDS011;61972;19.480;-99.240;2023-04-25T06:15:54;12.05;;;8.63;;
73672;SDS011;61972;19.480;-99.240;2023-04-25T06:18:20;12.85;;;8.88;;
73672;SDS011;61972;19.480;-99.240;2023-04-25T06:20:49;12.65;;;8.43;;
73672;SDS011;61972;19.480;-99.240;2023-04-25T06:23:15;12.35;;;8.43;;
73672;SDS011;61972;19.480;-99.240;2023-04-25T06:25:41;13.53;;;8.30;;
73672;SDS011;61972;19.480;-99.240;2023-04-25T06:28:10;15.35;;;8.40;;
73672;SDS011;61972;19.480;-99.240;2023-04-25T06:30:45;11.68;;;8.52;;
73672;SDS011;61972;19.480;-99.240;2023-04-25T06:33:15;13.48;;;8.38;;
73672;SDS011;61972;19.480;-99.240;2023-04-25T06:35:42;13.40;;;8.25;;
73672;SDS011;61972;19.480;-99.240;2023-04-25T06:38:08;9.73;;;7.60;;
73672;SDS011;61972;19.480;-99.240;2023-04-25T06:40:34;11.48;;;8.00;;
73672;SDS011;61972;19.480;-99.240;2023-04-25T06:43:00;11.32;;;8.20;;
73672;SDS011;61972;19.480;-99.240;2023-04-25T06:45:27;12.00;;;8.27;;
73672;SDS011;61972;19.480;-99.240;2023-04-25T06:47:57;10.90;;;7.65;;
73672;SDS011;61972;19.480;-99.240;2023-04-25T06:50:24;10.40;;;7.30;;
73672;SDS011;61972;19.480;-99.240;2023-04-25T06:52:52;11.80;;;7.72;;
73672;SDS011;61972;19.480;-99.240;2023-04-25T06:55:19;9.93;;;7.90;;
73672;SDS011;61972;19.480;-99.240;2023-04-25T06:57:45;9.27;;;7.63;;
73672;SDS011;61972;19.480;-99.240;2023-04-25T07:00:11;10.32;;;7.75;;
73672;SDS011;61972;19.480;-99.240;2023-04-25T07:02:38;9.20;;;7.00;;
73672;SDS011;61972;19.480;-99.240;2023-04-25T07:05:18;10.45;;;7.70;;
73672;SDS011;61972;19.480;-99.240;2023-04-25T07:07:51;13.35;;;8.15;;
73672;SDS011;61972;19.480;-99.240;2023-04-25T07:10:17;10.10;;;7.35;;
73672;SDS011;61972;19.480;-99.240;2023-04-25T07:12:43;10.70;;;7.50;;
73672;SDS011;61972;19.480;-99.240;2023-04-25T07:15:09;10.23;;;7.30;;
73672;SDS011;61972;19.480;-99.240;2023-04-25T07:17:45;10.05;;;7.40;;
73672;SDS011;61972;19.480;-99.240;2023-04-25T07:20:19;11.57;;;8.32;;
73672;SDS011;61972;19.480;-99.240;2023-04-25T07:22:48;10.65;;;6.93;;
73672;SDS011;61972;19.480;-99.240;2023-04-25T07:25:30;9.57;;;7.32;;
73672;SDS011;61972;19.480;-99.240;2023-04-25T07:27:57;9.27;;;6.80;;
73672;SDS011;61972;19.480;-99.240;2023-04-25T07:30:23;9.63;;;7.00;;
73672;SDS011;61972;19.480;-99.240;2023-04-25T07:33:05;8.73;;;6.80;;
73672;SDS011;61972;19.480;-99.240;2023-04-25T07:35:31;8.93;;;7.15;;
73672;SDS011;61972;19.480;-99.240;2023-04-25T07:37:57;8.27;;;6.55;;
73672;SDS011;61972;19.480;-99.240;2023-04-25T07:40:24;9.57;;;7.20;;
73672;SDS011;61972;19.480;-99.240;2023-04-25T07:42:50;8.40;;;6.85;;
73672;SDS011;61972;19.480;-99.240;2023-04-25T07:45:16;8.32;;;6.72;;
73672;SDS011;61972;19.480;-99.240;2023-04-25T07:53:33;8.90;;;6.60;;
73672;SDS011;61972;19.480;-99.240;2023-04-25T07:56:03;11.95;;;6.90;;
73672;SDS011;61972;19.480;-99.240;2023-04-25T07:58:30;10.23;;;6.00;;
73672;SDS011;61972;19.480;-99.240;2023-04-25T08:00:56;10.63;;;6.80;;
73672;SDS011;61972;19.480;-99.240;2023-04-25T08:03:22;8.60;;;6.65;;
73672;SDS011;61972;19.480;-99.240;2023-04-25T08:05:48;8.10;;;6.30;;
73672;SDS011;61972;19.480;-99.240;2023-04-25T08:08:14;8.43;;;6.03;;
73672;SDS011;61972;19.480;-99.240;2023-04-25T08:10:40;8.90;;;6.65;;
73672;SDS011;61972;19.480;-99.240;2023-04-25T08:13:07;7.68;;;6.10;;
73672;SDS011;61972;19.480;-99.240;2023-04-25T08:15:33;10.80;;;5.93;;
73672;SDS011;61972;19.480;-99.240;2023-04-25T08:17:59;8.27;;;6.37;;
73672;SDS011;61972;19.480;-99.240;2023-04-25T08:20:26;8.77;;;6.47;;
73672;SDS011;61972;19.480;-99.240;2023-04-25T08:22:54;8.52;;;6.45;;
73672;SDS011;61972;19.480;-99.240;2023-04-25T08:25:24;8.02;;;6.53;;
73672;SDS011;61972;19.480;-99.240;2023-04-25T08:27:50;7.93;;;6.50;;
73672;SDS011;61972;19.480;-99.240;2023-04-25T08:30:16;10.00;;;5.77;;
73672;SDS011;61972;19.480;-99.240;2023-04-25T08:32:42;7.20;;;6.00;;
73672;SDS011;61972;19.480;-99.240;2023-04-25T08:35:11;8.27;;;6.32;;
73672;SDS011;61972;19.480;-99.240;2023-04-25T08:37:38;7.95;;;6.22;;
73672;SDS011;61972;19.480;-99.240;2023-04-25T08:40:04;8.48;;;6.35;;
73672;SDS011;61972;19.480;-99.240;2023-04-25T08:42:32;7.97;;;5.93;;
73672;SDS011;61972;19.480;-99.240;2023-04-25T08:45:02;10.05;;;6.57;;
73672;SDS011;61972;19.480;-99.240;2023-04-25T08:47:29;7.95;;;6.13;;
73672;SDS011;61972;19.480;-99.240;2023-04-25T08:49:59;7.68;;;5.90;;
73672;SDS011;61972;19.480;-99.240;2023-04-25T08:52:28;8.63;;;6.43;;
73672;SDS011;61972;19.480;-99.240;2023-04-25T08:55:00;7.60;;;6.20;;
73672;SDS011;61972;19.480;-99.240;2023-04-25T08:57:28;7.93;;;5.85;;
73672;SDS011;61972;19.480;-99.240;2023-04-25T08:59:56;7.18;;;5.75;;
73672;SDS011;61972;19.480;-99.240;2023-04-25T09:02:23;8.23;;;5.95;;
73672;SDS011;61972;19.480;-99.240;2023-04-25T09:04:50;9.70;;;6.22;;
73672;SDS011;61972;19.480;-99.240;2023-04-25T09:07:16;7.80;;;5.37;;
73672;SDS011;61972;19.480;-99.240;2023-04-25T09:09:46;7.18;;;5.45;;
73672;SDS011;61972;19.480;-99.240;2023-04-25T09:15:02;10.73;;;6.60;;
73672;SDS011;61972;19.480;-99.240;2023-04-25T09:17:35;10.90;;;6.43;;
73672;SDS011;61972;19.480;-99.240;2023-04-25T09:20:06;9.60;;;6.60;;
73672;SDS011;61972;19.480;-99.240;2023-04-25T09:22:36;8.60;;;6.22;;
73672;SDS011;61972;19.480;-99.240;2023-04-25T09:25:04;10.23;;;6.50;;
73672;SDS011;61972;19.480;-99.240;2023-04-25T09:27:40;8.15;;;6.35;;
73672;SDS011;61972;19.480;-99.240;2023-04-25T09:30:16;8.77;;;6.18;;
73672;SDS011;61972;19.480;-99.240;2023-04-25T09:32:43;8.73;;;5.97;;
73672;SDS011;61972;19.480;-99.240;2023-04-25T09:35:09;8.95;;;6.13;;
73672;SDS011;61972;19.480;-99.240;2023-04-25T09:37:36;8.38;;;6.10;;
73672;SDS011;61972;19.480;-99.240;2023-04-25T09:40:04;8.40;;;6.68;;
73672;SDS011;61972;19.480;-99.240;2023-04-25T09:42:32;8.73;;;5.75;;
73672;SDS011;61972;19.480;-99.240;2023-04-25T09:45:00;9.93;;;6.20;;
73672;SDS011;61972;19.480;-99.240;2023-04-25T09:47:27;11.77;;;6.60;;
73672;SDS011;61972;19.480;-99.240;2023-04-25T09:49:54;11.13;;;6.57;;
73672;SDS011;61972;19.480;-99.240;2023-04-25T09:52:21;10.25;;;6.95;;
73672;SDS011;61972;19.480;-99.240;2023-04-25T09:54:49;13.55;;;6.75;;
73672;SDS011;61972;19.480;-99.240;2023-04-25T09:59:49;10.10;;;6.78;;
73672;SDS011;61972;19.480;-99.240;2023-04-25T10:02:20;9.77;;;7.25;;
73672;SDS011;61972;19.480;-99.240;2023-04-25T10:04:49;10.98;;;7.63;;
73672;SDS011;61972;19.480;-99.240;2023-04-25T10:07:18;9.15;;;6.95;;
73672;SDS011;61972;19.480;-99.240;2023-04-25T10:09:49;11.20;;;6.90;;
73672;SDS011;61972;19.480;-99.240;2023-04-25T10:12:18;10.07;;;7.07;;
73672;SDS011;61972;19.480;-99.240;2023-04-25T10:14:45;12.70;;;7.63;;
73672;SDS011;61972;19.480;-99.240;2023-04-25T10:17:12;11.13;;;7.85;;
73672;SDS011;61972;19.480;-99.240;2023-04-25T10:19:39;12.77;;;7.88;;
73672;SDS011;61972;19.480;-99.240;2023-04-25T10:24:37;10.75;;;7.60;;
73672;SDS011;61972;19.480;-99.240;2023-04-25T10:27:04;12.00;;;8.10;;
73672;SDS011;61972;19.480;-99.240;2023-04-25T10:29:34;12.18;;;7.97;;
73672;SDS011;61972;19.480;-99.240;2023-04-25T10:32:01;12.23;;;7.78;;
73672;SDS011;61972;19.480;-99.240;2023-04-25T10:35:04;11.80;;;8.10;;
73672;SDS011;61972;19.480;-99.240;2023-04-25T10:37:20;11.52;;;8.05;;
73672;SDS011;61972;19.480;-99.240;2023-04-25T10:39:46;11.45;;;8.15;;
73672;SDS011;61972;19.480;-99.240;2023-04-25T10:42:12;12.73;;;8.60;;
73672;SDS011;61972;19.480;-99.240;2023-04-25T10:44:39;12.20;;;8.68;;
73672;SDS011;61972;19.480;-99.240;2023-04-25T10:47:06;12.50;;;8.40;;
73672;SDS011;61972;19.480;-99.240;2023-04-25T10:49:35;14.63;;;8.27;;
73672;SDS011;61972;19.480;-99.240;2023-04-25T10:52:13;13.63;;;8.38;;
73672;SDS011;61972;19.480;-99.240;2023-04-25T10:54:54;11.45;;;8.23;;
73672;SDS011;61972;19.480;-99.240;2023-04-25T10:57:28;11.70;;;8.27;;
73672;SDS011;61972;19.480;-99.240;2023-04-25T10:59:58;13.00;;;9.10;;
73672;SDS011;61972;19.480;-99.240;2023-04-25T11:02:28;14.65;;;8.70;;
73672;SDS011;61972;19.480;-99.240;2023-04-25T11:04:54;13.18;;;8.85;;
73672;SDS011;61972;19.480;-99.240;2023-04-25T11:07:26;12.45;;;8.48;;
73672;SDS011;61972;19.480;-99.240;2023-04-25T11:10:03;15.68;;;8.70;;
73672;SDS011;61972;19.480;-99.240;2023-04-25T11:12:31;12.30;;;8.47;;
73672;SDS011;61972;19.480;-99.240;2023-04-25T11:15:01;15.20;;;9.20;;
73672;SDS011;61972;19.480;-99.240;2023-04-25T11:17:31;12.18;;;8.85;;
73672;SDS011;61972;19.480;-99.240;2023-04-25T11:19:58;12.93;;;9.20;;
73672;SDS011;61972;19.480;-99.240;2023-04-25T11:22:26;11.98;;;9.13;;
73672;SDS011;61972;19.480;-99.240;2023-04-25T11:24:53;13.17;;;9.10;;
73672;SDS011;61972;19.480;-99.240;2023-04-25T11:27:19;15.65;;;9.50;;
73672;SDS011;61972;19.480;-99.240;2023-04-25T11:29:46;12.38;;;8.90;;
73672;SDS011;61972;19.480;-99.240;2023-04-25T11:32:14;15.23;;;9.82;;
73672;SDS011;61972;19.480;-99.240;2023-04-25T11:34:42;12.13;;;8.70;;
73672;SDS011;61972;19.480;-99.240;2023-04-25T11:37:10;13.90;;;9.50;;
73672;SDS011;61972;19.480;-99.240;2023-04-25T11:39:42;14.30;;;9.55;;
73672;SDS011;61972;19.480;-99.240;2023-04-25T11:42:10;15.10;;;10.10;;
73672;SDS011;61972;19.480;-99.240;2023-04-25T11:44:37;13.25;;;9.65;;
73672;SDS011;61972;19.480;-99.240;2023-04-25T11:47:05;13.30;;;8.98;;
73672;SDS011;61972;19.480;-99.240;2023-04-25T11:49:31;16.37;;;9.30;;
73672;SDS011;61972;19.480;-99.240;2023-04-25T11:51:57;14.90;;;9.50;;
73672;SDS011;61972;19.480;-99.240;2023-04-25T11:54:23;15.32;;;9.48;;
73672;SDS011;61972;19.480;-99.240;2023-04-25T11:56:50;14.20;;;9.27;;
73672;SDS011;61972;19.480;-99.240;2023-04-25T11:59:16;13.95;;;9.63;;
73672;SDS011;61972;19.480;-99.240;2023-04-25T12:01:48;14.13;;;9.07;;
73672;SDS011;61972;19.480;-99.240;2023-04-25T12:04:19;15.50;;;10.18;;
73672;SDS011;61972;19.480;-99.240;2023-04-25T12:06:47;13.85;;;9.57;;
73672;SDS011;61972;19.480;-99.240;2023-04-25T12:09:19;17.42;;;9.77;;
73672;SDS011;61972;19.480;-99.240;2023-04-25T12:11:47;15.20;;;10.02;;
73672;SDS011;61972;19.480;-99.240;2023-04-25T12:14:22;13.33;;;9.20;;
73672;SDS011;61972;19.480;-99.240;2023-04-25T12:16:50;15.80;;;9.27;;
73672;SDS011;61972;19.480;-99.240;2023-04-25T12:19:17;15.38;;;9.32;;
73672;SDS011;61972;19.480;-99.240;2023-04-25T12:21:45;16.70;;;9.30;;
73672;SDS011;61972;19.480;-99.240;2023-04-25T12:24:24;16.10;;;9.98;;
73672;SDS011;61972;19.480;-99.240;2023-04-25T12:27:00;17.03;;;9.30;;
73672;SDS011;61972;19.480;-99.240;2023-04-25T12:29:28;14.18;;;9.85;;
73672;SDS011;61972;19.480;-99.240;2023-04-25T12:31:56;14.45;;;9.65;;
73672;SDS011;61972;19.480;-99.240;2023-04-25T12:34:22;14.95;;;9.65;;
73672;SDS011;61972;19.480;-99.240;2023-04-25T12:36:49;16.25;;;9.45;;
73672;SDS011;61972;19.480;-99.240;2023-04-25T12:39:17;17.97;;;9.93;;
73672;SDS011;61972;19.480;-99.240;2023-04-25T12:41:44;16.60;;;9.07;;
73672;SDS011;61972;19.480;-99.240;2023-04-25T12:44:11;16.17;;;10.10;;
73672;SDS011;61972;19.480;-99.240;2023-04-25T12:46:38;16.13;;;9.32;;
73672;SDS011;61972;19.480;-99.240;2023-04-25T12:49:06;16.70;;;9.90;;
73672;SDS011;61972;19.480;-99.240;2023-04-25T12:51:36;16.33;;;9.57;;
73672;SDS011;61972;19.480;-99.240;2023-04-25T12:54:02;15.13;;;9.80;;
73672;SDS011;61972;19.480;-99.240;2023-04-25T12:56:30;14.77;;;10.32;;
73672;SDS011;61972;19.480;-99.240;2023-04-25T12:58:57;13.85;;;10.00;;
73672;SDS011;61972;19.480;-99.240;2023-04-25T13:01:24;17.38;;;10.02;;
73672;SDS011;61972;19.480;-99.240;2023-04-25T13:03:50;16.57;;;9.77;;
73672;SDS011;61972;19.480;-99.240;2023-04-25T13:06:17;18.35;;;9.82;;
73672;SDS011;61972;19.480;-99.240;2023-04-25T13:08:44;16.88;;;9.90;;
73672;SDS011;61972;19.480;-99.240;2023-04-25T13:11:11;17.33;;;10.43;;
73672;SDS011;61972;19.480;-99.240;2023-04-25T13:13:37;15.65;;;10.75;;
73672;SDS011;61972;19.480;-99.240;2023-04-25T13:16:05;14.77;;;9.67;;
73672;SDS011;61972;19.480;-99.240;2023-04-25T13:18:32;16.83;;;10.20;;
73672;SDS011;61972;19.480;-99.240;2023-04-25T13:20:59;16.98;;;10.70;;
73672;SDS011;61972;19.480;-99.240;2023-04-25T13:23:26;18.13;;;10.60;;
73672;SDS011;61972;19.480;-99.240;2023-04-25T13:25:53;15.98;;;10.20;;
73672;SDS011;61972;19.480;-99.240;2023-04-25T13:28:20;15.30;;;10.20;;
73672;SDS011;61972;19.480;-99.240;2023-04-25T13:30:47;18.23;;;10.60;;
73672;SDS011;61972;19.480;-99.240;2023-04-25T13:33:14;16.50;;;10.40;;
73672;SDS011;61972;19.480;-99.240;2023-04-25T13:35:40;16.20;;;10.20;;
73672;SDS011;61972;19.480;-99.240;2023-04-25T13:38:10;17.55;;;10.30;;
73672;SDS011;61972;19.480;-99.240;2023-04-25T13:40:40;17.10;;;10.40;;
73672;SDS011;61972;19.480;-99.240;2023-04-25T13:43:09;15.40;;;10.02;;
73672;SDS011;61972;19.480;-99.240;2023-04-25T13:45:35;16.38;;;10.77;;
73672;SDS011;61972;19.480;-99.240;2023-04-25T13:48:01;17.25;;;10.10;;
73672;SDS011;61972;19.480;-99.240;2023-04-25T13:50:28;16.23;;;9.55;;
73672;SDS011;61972;19.480;-99.240;2023-04-25T13:52:54;14.27;;;9.80;;
73672;SDS011;61972;19.480;-99.240;2023-04-25T13:55:20;14.38;;;10.05;;
73672;SDS011;61972;19.480;-99.240;2023-04-25T13:57:46;15.77;;;10.20;;
73672;SDS011;61972;19.480;-99.240;2023-04-25T14:00:12;13.20;;;9.35;;
73672;SDS011;61972;19.480;-99.240;2023-04-25T14:02:39;14.57;;;9.43;;
73672;SDS011;61972;19.480;-99.240;2023-04-25T14:05:05;13.87;;;9.27;;
73672;SDS011;61972;19.480;-99.240;2023-04-25T14:07:33;13.95;;;9.55;;
73672;SDS011;61972;19.480;-99.240;2023-04-25T14:10:00;15.60;;;9.55;;
73672;SDS011;61972;19.480;-99.240;2023-04-25T14:12:26;15.10;;;9.80;;
73672;SDS011;61972;19.480;-99.240;2023-04-25T14:17:58;14.50;;;9.87;;
73672;SDS011;61972;19.480;-99.240;2023-04-25T14:20:25;16.60;;;9.60;;
73672;SDS011;61972;19.480;-99.240;2023-04-25T14:22:51;14.18;;;9.98;;
73672;SDS011;61972;19.480;-99.240;2023-04-25T14:25:19;12.88;;;9.15;;
73672;SDS011;61972;19.480;-99.240;2023-04-25T14:27:46;14.80;;;9.40;;
73672;SDS011;61972;19.480;-99.240;2023-04-25T14:30:15;16.63;;;9.67;;
73672;SDS011;61972;19.480;-99.240;2023-04-25T14:32:42;16.27;;;9.77;;
73672;SDS011;61972;19.480;-99.240;2023-04-25T14:35:10;13.68;;;9.60;;
73672;SDS011;61972;19.480;-99.240;2023-04-25T14:37:36;13.32;;;9.20;;
73672;SDS011;61972;19.480;-99.240;2023-04-25T14:40:03;12.90;;;9.50;;
73672;SDS011;61972;19.480;-99.240;2023-04-25T14:42:30;11.60;;;8.50;;
73672;SDS011;61972;19.480;-99.240;2023-04-25T14:44:58;12.40;;;8.88;;
73672;SDS011;61972;19.480;-99.240;2023-04-25T14:47:24;13.75;;;8.98;;
73672;SDS011;61972;19.480;-99.240;2023-04-25T14:49:50;15.88;;;9.77;;